sensor_id;sensor_type;location;lat;lon;timestamp;P1;durP1;ratioP1;P2;durP2;ratioP2
7813;SDS011;3952;48.364;16.022;2023-04-24T00:01:03;5.60;;;5.20;;
7813;SDS011;3952;48.364;16.022;2023-04-24T00:03:32;5.47;;;5.07;;
7813;SDS011;3952;48.364;16.022;2023-04-24T00:05:59;5.90;;;5.50;;
7813;SDS011;3952;48.364;16.022;2023-04-24T00:08:27;5.67;;;5.30;;
7813;SDS011;3952;48.364;16.022;2023-04-24T00:10:54;5.93;;;5.43;;
7813;SDS011;3952;48.364;16.022;2023-04-24T00:13:22;5.87;;;5.47;;
7813;SDS011;3952;48.364;16.022;2023-04-24T00:15:49;5.97;;;5.57;;
7813;SDS011;3952;48.364;16.022;2023-04-24T00:18:17;5.90;;;5.40;;
7813;SDS011;3952;48.364;16.022;2023-04-24T00:20:45;5.63;;;5.33;;
7813;SDS011;3952;48.364;16.022;2023-04-24T00:23:12;5.63;;;5.23;;
7813;SDS011;3952;48.364;16.022;2023-04-24T00:25:40;5.60;;;5.30;;
7813;SDS011;3952;48.364;16.022;2023-04-24T00:28:07;5.47;;;5.17;;
7813;SDS011;3952;48.364;16.022;2023-04-24T00:30:34;6.10;;;5.70;;
7813;SDS011;3952;48.364;16.022;2023-04-24T00:33:01;6.43;;;5.93;;
7813;SDS011;3952;48.364;16.022;2023-04-24T00:35:30;6.30;;;5.67;;
7813;SDS011;3952;48.364;16.022;2023-04-24T00:37:57;5.90;;;5.60;;
7813;SDS011;3952;48.364;16.022;2023-04-24T00:40:24;5.63;;;5.33;;
7813;SDS011;3952;48.364;16.022;2023-04-24T00:42:51;5.47;;;5.00;;
7813;SDS011;3952;48.364;16.022;2023-04-24T00:45:19;5.77;;;5.47;;
7813;SDS011;3952;48.364;16.022;2023-04-24T00:47:46;6.13;;;5.63;;
7813;SDS011;3952;48.364;16.022;2023-04-24T00:50:14;5.23;;;4.93;;
7813;SDS011;3952;48.364;16.022;2023-04-24T00:52:43;5.83;;;5.53;;
7813;SDS011;3952;48.364;16.022;2023-04-24T00:55:10;5.87;;;5.47;;
7813;SDS011;3952;48.364;16.022;2023-04-24T00:57:38;5.30;;;5.00;;
7813;SDS011;3952;48.364;16.022;2023-04-24T01:00:06;6.13;;;5.73;;
7813;SDS011;3952;48.364;16.022;2023-04-24T01:02:37;6.07;;;5.23;;
7813;SDS011;3952;48.364;16.022;2023-04-24T01:05:09;5.50;;;5.20;;
7813;SDS011;3952;48.364;16.022;2023-04-24T01:07:37;6.07;;;5.57;;
7813;SDS011;3952;48.364;16.022;2023-04-24T01:10:07;5.70;;;5.27;;
7813;SDS011;3952;48.364;16.022;2023-04-24T01:12:36;7.00;;;6.60;;
7813;SDS011;3952;48.364;16.022;2023-04-24T01:15:04;6.53;;;5.97;;
7813;SDS011;3952;48.364;16.022;2023-04-24T01:17:32;6.27;;;5.77;;
7813;SDS011;3952;48.364;16.022;2023-04-24T01:19:59;6.23;;;5.83;;
7813;SDS011;3952;48.364;16.022;2023-04-24T01:22:32;5.50;;;5.20;;
7813;SDS011;3952;48.364;16.022;2023-04-24T01:25:00;7.70;;;6.00;;
7813;SDS011;3952;48.364;16.022;2023-04-24T01:27:28;6.30;;;5.90;;
7813;SDS011;3952;48.364;16.022;2023-04-24T01:29:55;5.97;;;5.47;;
7813;SDS011;3952;48.364;16.022;2023-04-24T01:32:23;6.30;;;5.80;;
7813;SDS011;3952;48.364;16.022;2023-04-24T01:34:50;6.37;;;5.77;;
7813;SDS011;3952;48.364;16.022;2023-04-24T01:37:18;9.70;;;6.47;;
7813;SDS011;3952;48.364;16.022;2023-04-24T01:39:47;6.30;;;5.87;;
7813;SDS011;3952;48.364;16.022;2023-04-24T01:42:14;7.30;;;6.20;;
7813;SDS011;3952;48.364;16.022;2023-04-24T01:44:42;8.13;;;7.20;;
7813;SDS011;3952;48.364;16.022;2023-04-24T01:47:09;7.77;;;7.17;;
7813;SDS011;3952;48.364;16.022;2023-04-24T01:49:37;7.77;;;7.07;;
7813;SDS011;3952;48.364;16.022;2023-04-24T01:52:05;7.83;;;7.37;;
7813;SDS011;3952;48.364;16.022;2023-04-24T01:54:32;8.37;;;7.60;;
7813;SDS011;3952;48.364;16.022;2023-04-24T01:57:01;7.97;;;7.40;;
7813;SDS011;3952;48.364;16.022;2023-04-24T01:59:28;7.30;;;6.90;;
7813;SDS011;3952;48.364;16.022;2023-04-24T02:01:57;7.87;;;7.37;;
7813;SDS011;3952;48.364;16.022;2023-04-24T02:04:25;7.63;;;7.23;;
7813;SDS011;3952;48.364;16.022;2023-04-24T02:06:52;8.43;;;7.93;;
7813;SDS011;3952;48.364;16.022;2023-04-24T02:09:19;8.10;;;7.70;;
7813;SDS011;3952;48.364;16.022;2023-04-24T02:11:46;7.97;;;7.47;;
7813;SDS011;3952;48.364;16.022;2023-04-24T02:14:15;7.67;;;7.17;;
7813;SDS011;3952;48.364;16.022;2023-04-24T02:16:42;8.53;;;7.93;;
7813;SDS011;3952;48.364;16.022;2023-04-24T02:19:10;9.10;;;8.30;;
7813;SDS011;3952;48.364;16.022;2023-04-24T02:21:37;9.00;;;8.40;;
7813;SDS011;3952;48.364;16.022;2023-04-24T02:24:04;8.00;;;7.50;;
7813;SDS011;3952;48.364;16.022;2023-04-24T02:26:31;8.00;;;7.50;;
7813;SDS011;3952;48.364;16.022;2023-04-24T02:28:59;8.87;;;8.00;;
7813;SDS011;3952;48.364;16.022;2023-04-24T02:31:28;7.63;;;7.20;;
7813;SDS011;3952;48.364;16.022;2023-04-24T02:33:55;8.90;;;8.10;;
7813;SDS011;3952;48.364;16.022;2023-04-24T02:36:22;8.03;;;7.53;;
7813;SDS011;3952;48.364;16.022;2023-04-24T02:38:49;8.53;;;7.90;;
7813;SDS011;3952;48.364;16.022;2023-04-24T02:41:16;7.47;;;7.07;;
7813;SDS011;3952;48.364;16.022;2023-04-24T02:43:44;7.17;;;6.70;;
7813;SDS011;3952;48.364;16.022;2023-04-24T02:46:11;8.17;;;7.70;;
7813;SDS011;3952;48.364;16.022;2023-04-24T02:48:40;8.47;;;7.93;;
7813;SDS011;3952;48.364;16.022;2023-04-24T02:51:07;7.47;;;6.97;;
7813;SDS011;3952;48.364;16.022;2023-04-24T02:53:35;8.97;;;8.17;;
7813;SDS011;3952;48.364;16.022;2023-04-24T02:56:02;7.63;;;7.13;;
7813;SDS011;3952;48.364;16.022;2023-04-24T02:58:29;8.17;;;7.47;;
7813;SDS011;3952;48.364;16.022;2023-04-24T03:00:57;8.00;;;7.50;;
7813;SDS011;3952;48.364;16.022;2023-04-24T03:03:24;7.43;;;7.03;;
7813;SDS011;3952;48.364;16.022;2023-04-24T03:05:52;8.03;;;7.53;;
7813;SDS011;3952;48.364;16.022;2023-04-24T03:08:20;8.00;;;7.50;;
7813;SDS011;3952;48.364;16.022;2023-04-24T03:10:47;7.10;;;6.70;;
7813;SDS011;3952;48.364;16.022;2023-04-24T03:13:15;8.20;;;7.60;;
7813;SDS011;3952;48.364;16.022;2023-04-24T03:15:42;7.20;;;6.70;;
7813;SDS011;3952;48.364;16.022;2023-04-24T03:18:11;7.87;;;7.37;;
7813;SDS011;3952;48.364;16.022;2023-04-24T03:20:38;8.50;;;7.83;;
7813;SDS011;3952;48.364;16.022;2023-04-24T03:23:07;8.20;;;7.53;;
7813;SDS011;3952;48.364;16.022;2023-04-24T03:25:34;7.90;;;7.40;;
7813;SDS011;3952;48.364;16.022;2023-04-24T03:28:01;8.13;;;7.63;;
7813;SDS011;3952;48.364;16.022;2023-04-24T03:30:28;10.90;;;8.43;;
7813;SDS011;3952;48.364;16.022;2023-04-24T03:32:56;8.10;;;7.50;;
7813;SDS011;3952;48.364;16.022;2023-04-24T03:35:23;8.43;;;7.70;;
7813;SDS011;3952;48.364;16.022;2023-04-24T03:37:50;8.93;;;8.23;;
7813;SDS011;3952;48.364;16.022;2023-04-24T03:40:19;8.73;;;8.13;;
7813;SDS011;3952;48.364;16.022;2023-04-24T03:42:46;9.10;;;8.30;;
7813;SDS011;3952;48.364;16.022;2023-04-24T03:45:13;8.20;;;7.70;;
7813;SDS011;3952;48.364;16.022;2023-04-24T03:47:40;8.47;;;7.97;;
7813;SDS011;3952;48.364;16.022;2023-04-24T03:50:08;7.57;;;7.13;;
7813;SDS011;3952;48.364;16.022;2023-04-24T03:52:36;7.60;;;7.10;;
7813;SDS011;3952;48.364;16.022;2023-04-24T03:55:03;8.10;;;7.60;;
7813;SDS011;3952;48.364;16.022;2023-04-24T03:57:33;8.67;;;7.93;;
7813;SDS011;3952;48.364;16.022;2023-04-24T04:00:00;8.00;;;7.30;;
7813;SDS011;3952;48.364;16.022;2023-04-24T04:02:31;7.57;;;6.90;;
7813;SDS011;3952;48.364;16.022;2023-04-24T04:04:58;7.30;;;6.80;;
7813;SDS011;3952;48.364;16.022;2023-04-24T04:07:25;7.10;;;6.60;;
7813;SDS011;3952;48.364;16.022;2023-04-24T04:09:54;7.20;;;6.80;;
7813;SDS011;3952;48.364;16.022;2023-04-24T04:12:22;6.97;;;6.57;;
7813;SDS011;3952;48.364;16.022;2023-04-24T04:14:50;6.90;;;6.50;;
7813;SDS011;3952;48.364;16.022;2023-04-24T04:17:17;6.67;;;6.27;;
7813;SDS011;3952;48.364;16.022;2023-04-24T04:19:44;6.33;;;6.03;;
7813;SDS011;3952;48.364;16.022;2023-04-24T04:22:12;6.40;;;5.93;;
7813;SDS011;3952;48.364;16.022;2023-04-24T04:24:39;5.77;;;5.47;;
7813;SDS011;3952;48.364;16.022;2023-04-24T04:27:06;6.63;;;6.20;;
7813;SDS011;3952;48.364;16.022;2023-04-24T04:29:34;6.43;;;6.03;;
7813;SDS011;3952;48.364;16.022;2023-04-24T04:32:02;6.37;;;6.07;;
7813;SDS011;3952;48.364;16.022;2023-04-24T04:34:30;5.83;;;5.43;;
7813;SDS011;3952;48.364;16.022;2023-04-24T04:36:58;6.20;;;5.70;;
7813;SDS011;3952;48.364;16.022;2023-04-24T04:39:27;6.20;;;5.80;;
7813;SDS011;3952;48.364;16.022;2023-04-24T04:41:55;6.30;;;5.90;;
7813;SDS011;3952;48.364;16.022;2023-04-24T04:44:22;6.93;;;6.43;;
7813;SDS011;3952;48.364;16.022;2023-04-24T04:46:49;6.37;;;5.87;;
7813;SDS011;3952;48.364;16.022;2023-04-24T04:49:19;6.80;;;6.40;;
7813;SDS011;3952;48.364;16.022;2023-04-24T04:51:48;6.57;;;6.07;;
7813;SDS011;3952;48.364;16.022;2023-04-24T04:54:16;6.73;;;6.33;;
7813;SDS011;3952;48.364;16.022;2023-04-24T04:56:43;6.60;;;6.20;;
7813;SDS011;3952;48.364;16.022;2023-04-24T04:59:11;7.00;;;6.60;;
7813;SDS011;3952;48.364;16.022;2023-04-24T05:01:38;6.83;;;6.47;;
7813;SDS011;3952;48.364;16.022;2023-04-24T05:04:05;7.47;;;6.90;;
7813;SDS011;3952;48.364;16.022;2023-04-24T05:06:34;8.10;;;7.40;;
7813;SDS011;3952;48.364;16.022;2023-04-24T05:09:01;8.50;;;7.90;;
7813;SDS011;3952;48.364;16.022;2023-04-24T05:11:29;8.80;;;8.17;;
7813;SDS011;3952;48.364;16.022;2023-04-24T05:13:56;7.87;;;7.17;;
7813;SDS011;3952;48.364;16.022;2023-04-24T05:16:23;8.17;;;7.43;;
7813;SDS011;3952;48.364;16.022;2023-04-24T05:18:51;8.13;;;7.50;;
7813;SDS011;3952;48.364;16.022;2023-04-24T05:21:18;7.80;;;7.30;;
7813;SDS011;3952;48.364;16.022;2023-04-24T05:23:46;7.40;;;6.90;;
7813;SDS011;3952;48.364;16.022;2023-04-24T05:26:13;7.43;;;6.97;;
7813;SDS011;3952;48.364;16.022;2023-04-24T05:28:41;7.80;;;7.20;;
7813;SDS011;3952;48.364;16.022;2023-04-24T05:31:08;7.47;;;7.00;;
7813;SDS011;3952;48.364;16.022;2023-04-24T05:33:35;7.77;;;7.27;;
7813;SDS011;3952;48.364;16.022;2023-04-24T05:36:03;7.20;;;6.60;;
7813;SDS011;3952;48.364;16.022;2023-04-24T05:38:31;6.80;;;6.40;;
7813;SDS011;3952;48.364;16.022;2023-04-24T05:40:59;6.80;;;6.40;;
7813;SDS011;3952;48.364;16.022;2023-04-24T05:43:27;6.83;;;6.43;;
7813;SDS011;3952;48.364;16.022;2023-04-24T05:45:54;7.03;;;6.63;;
7813;SDS011;3952;48.364;16.022;2023-04-24T05:48:21;6.90;;;6.50;;
7813;SDS011;3952;48.364;16.022;2023-04-24T05:50:48;6.97;;;6.57;;
7813;SDS011;3952;48.364;16.022;2023-04-24T05:53:17;7.40;;;6.80;;
7813;SDS011;3952;48.364;16.022;2023-04-24T05:55:44;7.27;;;6.57;;
7813;SDS011;3952;48.364;16.022;2023-04-24T05:58:13;7.23;;;6.83;;
7813;SDS011;3952;48.364;16.022;2023-04-24T06:00:41;7.77;;;7.20;;
7813;SDS011;3952;48.364;16.022;2023-04-24T06:03:09;7.40;;;6.90;;
7813;SDS011;3952;48.364;16.022;2023-04-24T06:05:36;7.87;;;7.37;;
7813;SDS011;3952;48.364;16.022;2023-04-24T06:08:04;6.83;;;6.43;;
7813;SDS011;3952;48.364;16.022;2023-04-24T06:10:31;6.70;;;6.30;;
7813;SDS011;3952;48.364;16.022;2023-04-24T06:12:58;6.80;;;6.40;;
7813;SDS011;3952;48.364;16.022;2023-04-24T06:15:29;6.53;;;6.13;;
7813;SDS011;3952;48.364;16.022;2023-04-24T06:17:56;6.97;;;6.57;;
7813;SDS011;3952;48.364;16.022;2023-04-24T06:20:24;7.20;;;6.67;;
7813;SDS011;3952;48.364;16.022;2023-04-24T06:22:51;6.97;;;6.57;;
7813;SDS011;3952;48.364;16.022;2023-04-24T06:25:19;7.07;;;6.63;;
7813;SDS011;3952;48.364;16.022;2023-04-24T06:27:46;6.67;;;6.17;;
7813;SDS011;3952;48.364;16.022;2023-04-24T06:30:13;6.83;;;6.43;;
7813;SDS011;3952;48.364;16.022;2023-04-24T06:32:42;7.17;;;6.77;;
7813;SDS011;3952;48.364;16.022;2023-04-24T06:35:09;6.87;;;6.47;;
7813;SDS011;3952;48.364;16.022;2023-04-24T06:37:37;6.90;;;6.50;;
7813;SDS011;3952;48.364;16.022;2023-04-24T06:40:06;6.90;;;6.50;;
7813;SDS011;3952;48.364;16.022;2023-04-24T06:42:33;6.87;;;6.47;;
7813;SDS011;3952;48.364;16.022;2023-04-24T06:45:01;6.60;;;6.20;;
7813;SDS011;3952;48.364;16.022;2023-04-24T06:47:29;6.47;;;5.97;;
7813;SDS011;3952;48.364;16.022;2023-04-24T06:49:58;6.17;;;5.77;;
7813;SDS011;3952;48.364;16.022;2023-04-24T06:52:25;6.23;;;5.93;;
7813;SDS011;3952;48.364;16.022;2023-04-24T06:54:52;6.13;;;5.83;;
7813;SDS011;3952;48.364;16.022;2023-04-24T06:57:27;7.00;;;6.60;;
7813;SDS011;3952;48.364;16.022;2023-04-24T06:59:54;5.93;;;5.63;;
7813;SDS011;3952;48.364;16.022;2023-04-24T07:02:22;6.70;;;6.20;;
7813;SDS011;3952;48.364;16.022;2023-04-24T07:04:49;6.20;;;5.70;;
7813;SDS011;3952;48.364;16.022;2023-04-24T07:07:19;5.63;;;5.33;;
7813;SDS011;3952;48.364;16.022;2023-04-24T07:09:46;5.47;;;5.17;;
7813;SDS011;3952;48.364;16.022;2023-04-24T07:12:13;5.57;;;5.27;;
7813;SDS011;3952;48.364;16.022;2023-04-24T07:14:42;5.10;;;4.80;;
7813;SDS011;3952;48.364;16.022;2023-04-24T07:17:09;5.73;;;5.33;;
7813;SDS011;3952;48.364;16.022;2023-04-24T07:19:38;5.13;;;4.83;;
7813;SDS011;3952;48.364;16.022;2023-04-24T07:22:05;5.47;;;5.17;;
7813;SDS011;3952;48.364;16.022;2023-04-24T07:24:34;5.40;;;5.10;;
7813;SDS011;3952;48.364;16.022;2023-04-24T07:27:01;5.00;;;4.80;;
7813;SDS011;3952;48.364;16.022;2023-04-24T07:29:29;4.80;;;4.60;;
7813;SDS011;3952;48.364;16.022;2023-04-24T07:31:56;5.10;;;4.70;;
7813;SDS011;3952;48.364;16.022;2023-04-24T07:34:23;4.80;;;4.50;;
7813;SDS011;3952;48.364;16.022;2023-04-24T07:36:51;4.50;;;4.30;;
7813;SDS011;3952;48.364;16.022;2023-04-24T07:39:18;4.50;;;4.30;;
7813;SDS011;3952;48.364;16.022;2023-04-24T07:41:47;4.97;;;4.57;;
7813;SDS011;3952;48.364;16.022;2023-04-24T07:44:14;4.40;;;4.20;;
7813;SDS011;3952;48.364;16.022;2023-04-24T07:46:41;3.90;;;3.70;;
7813;SDS011;3952;48.364;16.022;2023-04-24T07:49:08;4.13;;;3.83;;
7813;SDS011;3952;48.364;16.022;2023-04-24T07:51:36;3.47;;;3.27;;
7813;SDS011;3952;48.364;16.022;2023-04-24T07:54:04;3.17;;;3.07;;
7813;SDS011;3952;48.364;16.022;2023-04-24T07:56:32;3.20;;;3.00;;
7813;SDS011;3952;48.364;16.022;2023-04-24T07:59:01;3.03;;;2.93;;
7813;SDS011;3952;48.364;16.022;2023-04-24T08:01:28;3.23;;;3.00;;
7813;SDS011;3952;48.364;16.022;2023-04-24T08:03:55;2.90;;;2.70;;
7813;SDS011;3952;48.364;16.022;2023-04-24T08:06:23;2.30;;;2.10;;
7813;SDS011;3952;48.364;16.022;2023-04-24T08:08:53;2.60;;;2.50;;
7813;SDS011;3952;48.364;16.022;2023-04-24T08:11:20;2.47;;;2.37;;
7813;SDS011;3952;48.364;16.022;2023-04-24T08:13:47;2.57;;;2.47;;
7813;SDS011;3952;48.364;16.022;2023-04-24T08:16:16;4.83;;;2.73;;
7813;SDS011;3952;48.364;16.022;2023-04-24T08:18:43;2.53;;;2.43;;
7813;SDS011;3952;48.364;16.022;2023-04-24T08:21:10;2.13;;;2.03;;
7813;SDS011;3952;48.364;16.022;2023-04-24T08:23:42;2.27;;;2.17;;
7813;SDS011;3952;48.364;16.022;2023-04-24T08:26:09;2.40;;;2.30;;
7813;SDS011;3952;48.364;16.022;2023-04-24T08:28:37;2.30;;;2.20;;
7813;SDS011;3952;48.364;16.022;2023-04-24T08:31:04;2.30;;;2.20;;
7813;SDS011;3952;48.364;16.022;2023-04-24T08:33:33;1.80;;;1.70;;
7813;SDS011;3952;48.364;16.022;2023-04-24T08:36:00;3.60;;;1.40;;
7813;SDS011;3952;48.364;16.022;2023-04-24T08:38:28;1.67;;;1.67;;
7813;SDS011;3952;48.364;16.022;2023-04-24T08:40:56;1.53;;;1.43;;
7813;SDS011;3952;48.364;16.022;2023-04-24T08:43:24;1.33;;;1.33;;
7813;SDS011;3952;48.364;16.022;2023-04-24T08:45:52;1.07;;;1.07;;
7813;SDS011;3952;48.364;16.022;2023-04-24T08:48:22;1.30;;;1.23;;
7813;SDS011;3952;48.364;16.022;2023-04-24T08:50:51;1.00;;;1.00;;
7813;SDS011;3952;48.364;16.022;2023-04-24T08:53:18;1.00;;;1.00;;
7813;SDS011;3952;48.364;16.022;2023-04-24T08:55:46;1.13;;;1.13;;
7813;SDS011;3952;48.364;16.022;2023-04-24T08:58:15;1.10;;;1.10;;
7813;SDS011;3952;48.364;16.022;2023-04-24T09:00:43;1.10;;;1.10;;
7813;SDS011;3952;48.364;16.022;2023-04-24T09:03:13;0.87;;;0.87;;
7813;SDS011;3952;48.364;16.022;2023-04-24T09:05:41;1.33;;;0.93;;
7813;SDS011;3952;48.364;16.022;2023-04-24T09:08:12;0.87;;;0.87;;
7813;SDS011;3952;48.364;16.022;2023-04-24T09:10:40;1.17;;;0.80;;
7813;SDS011;3952;48.364;16.022;2023-04-24T09:13:07;1.33;;;1.00;;
7813;SDS011;3952;48.364;16.022;2023-04-24T09:15:35;1.43;;;1.03;;
7813;SDS011;3952;48.364;16.022;2023-04-24T09:18:03;0.87;;;0.87;;
7813;SDS011;3952;48.364;16.022;2023-04-24T09:20:31;1.20;;;1.10;;
7813;SDS011;3952;48.364;16.022;2023-04-24T09:23:01;1.30;;;1.03;;
7813;SDS011;3952;48.364;16.022;2023-04-24T09:25:32;1.30;;;1.20;;
7813;SDS011;3952;48.364;16.022;2023-04-24T09:28:01;1.53;;;1.10;;
7813;SDS011;3952;48.364;16.022;2023-04-24T09:30:29;1.00;;;1.00;;
7813;SDS011;3952;48.364;16.022;2023-04-24T09:33:12;0.90;;;0.90;;
7813;SDS011;3952;48.364;16.022;2023-04-24T09:35:41;0.87;;;0.87;;
7813;SDS011;3952;48.364;16.022;2023-04-24T09:38:09;1.60;;;1.50;;
7813;SDS011;3952;48.364;16.022;2023-04-24T09:40:37;1.30;;;1.30;;
7813;SDS011;3952;48.364;16.022;2023-04-24T09:43:09;1.40;;;1.30;;
7813;SDS011;3952;48.364;16.022;2023-04-24T09:45:37;1.53;;;1.43;;
7813;SDS011;3952;48.364;16.022;2023-04-24T09:48:07;1.57;;;1.53;;
7813;SDS011;3952;48.364;16.022;2023-04-24T09:50:36;1.77;;;1.67;;
7813;SDS011;3952;48.364;16.022;2023-04-24T09:53:04;2.13;;;1.50;;
7813;SDS011;3952;48.364;16.022;2023-04-24T09:55:35;1.43;;;1.33;;
7813;SDS011;3952;48.364;16.022;2023-04-24T09:58:11;2.10;;;1.70;;
7813;SDS011;3952;48.364;16.022;2023-04-24T10:00:38;1.60;;;1.50;;
7813;SDS011;3952;48.364;16.022;2023-04-24T10:03:05;1.57;;;1.47;;
7813;SDS011;3952;48.364;16.022;2023-04-24T10:05:34;1.77;;;1.67;;
7813;SDS011;3952;48.364;16.022;2023-04-24T10:08:02;1.30;;;1.30;;
7813;SDS011;3952;48.364;16.022;2023-04-24T10:10:31;1.70;;;1.60;;
7813;SDS011;3952;48.364;16.022;2023-04-24T10:13:00;1.40;;;1.40;;
7813;SDS011;3952;48.364;16.022;2023-04-24T10:15:27;2.10;;;1.57;;
7813;SDS011;3952;48.364;16.022;2023-04-24T10:17:55;1.73;;;1.47;;
7813;SDS011;3952;48.364;16.022;2023-04-24T10:20:26;1.80;;;1.70;;
7813;SDS011;3952;48.364;16.022;2023-04-24T10:22:56;1.73;;;1.70;;
7813;SDS011;3952;48.364;16.022;2023-04-24T10:25:25;1.93;;;1.83;;
7813;SDS011;3952;48.364;16.022;2023-04-24T10:27:54;1.70;;;1.70;;
7813;SDS011;3952;48.364;16.022;2023-04-24T10:30:26;2.03;;;1.93;;
7813;SDS011;3952;48.364;16.022;2023-04-24T10:32:54;2.10;;;2.00;;
7813;SDS011;3952;48.364;16.022;2023-04-24T10:35:22;1.97;;;1.97;;
7813;SDS011;3952;48.364;16.022;2023-04-24T10:37:54;2.10;;;2.00;;
7813;SDS011;3952;48.364;16.022;2023-04-24T10:40:25;2.20;;;2.00;;
7813;SDS011;3952;48.364;16.022;2023-04-24T10:42:53;2.30;;;2.17;;
7813;SDS011;3952;48.364;16.022;2023-04-24T10:45:22;2.00;;;1.90;;
7813;SDS011;3952;48.364;16.022;2023-04-24T10:47:54;1.90;;;1.90;;
7813;SDS011;3952;48.364;16.022;2023-04-24T10:50:26;2.07;;;1.97;;
7813;SDS011;3952;48.364;16.022;2023-04-24T10:52:55;2.30;;;2.20;;
7813;SDS011;3952;48.364;16.022;2023-04-24T10:55:39;1.90;;;1.90;;
7813;SDS011;3952;48.364;16.022;2023-04-24T10:58:07;1.60;;;1.60;;
7813;SDS011;3952;48.364;16.022;2023-04-24T11:00:36;1.60;;;1.60;;
7813;SDS011;3952;48.364;16.022;2023-04-24T11:03:06;1.50;;;1.50;;
7813;SDS011;3952;48.364;16.022;2023-04-24T11:05:58;1.90;;;1.80;;
7813;SDS011;3952;48.364;16.022;2023-04-24T11:08:28;1.67;;;1.67;;
7813;SDS011;3952;48.364;16.022;2023-04-24T11:10:58;1.63;;;1.57;;
7813;SDS011;3952;48.364;16.022;2023-04-24T11:13:29;1.93;;;1.90;;
7813;SDS011;3952;48.364;16.022;2023-04-24T11:16:32;2.40;;;2.20;;
7813;SDS011;3952;48.364;16.022;2023-04-24T11:19:17;2.50;;;2.30;;
7813;SDS011;3952;48.364;16.022;2023-04-24T11:21:50;3.03;;;2.83;;
7813;SDS011;3952;48.364;16.022;2023-04-24T11:24:29;2.37;;;2.27;;
7813;SDS011;3952;48.364;16.022;2023-04-24T11:26:59;2.70;;;2.60;;
7813;SDS011;3952;48.364;16.022;2023-04-24T11:29:40;2.30;;;2.20;;
7813;SDS011;3952;48.364;16.022;2023-04-24T11:32:18;3.00;;;2.80;;
7813;SDS011;3952;48.364;16.022;2023-04-24T11:34:54;2.43;;;2.33;;
7813;SDS011;3952;48.364;16.022;2023-04-24T11:37:23;3.47;;;3.27;;
7813;SDS011;3952;48.364;16.022;2023-04-24T11:39:53;2.90;;;2.67;;
7813;SDS011;3952;48.364;16.022;2023-04-24T11:42:21;2.83;;;2.73;;
7813;SDS011;3952;48.364;16.022;2023-04-24T11:44:51;2.83;;;2.70;;
7813;SDS011;3952;48.364;16.022;2023-04-24T11:47:27;2.53;;;2.43;;
7813;SDS011;3952;48.364;16.022;2023-04-24T11:49:57;2.60;;;2.50;;
7813;SDS011;3952;48.364;16.022;2023-04-24T11:52:25;3.30;;;3.10;;
7813;SDS011;3952;48.364;16.022;2023-04-24T11:54:52;2.90;;;2.80;;
7813;SDS011;3952;48.364;16.022;2023-04-24T11:57:19;2.00;;;2.00;;
7813;SDS011;3952;48.364;16.022;2023-04-24T11:59:47;2.50;;;2.30;;
7813;SDS011;3952;48.364;16.022;2023-04-24T12:02:24;2.10;;;2.00;;
7813;SDS011;3952;48.364;16.022;2023-04-24T12:04:52;1.50;;;1.50;;
7813;SDS011;3952;48.364;16.022;2023-04-24T12:07:21;1.57;;;1.47;;
7813;SDS011;3952;48.364;16.022;2023-04-24T12:09:54;1.67;;;1.57;;
7813;SDS011;3952;48.364;16.022;2023-04-24T12:12:24;1.13;;;0.80;;
7813;SDS011;3952;48.364;16.022;2023-04-24T12:14:53;1.17;;;1.17;;
7813;SDS011;3952;48.364;16.022;2023-04-24T12:17:24;0.90;;;0.90;;
7813;SDS011;3952;48.364;16.022;2023-04-24T12:19:56;0.80;;;0.80;;
7813;SDS011;3952;48.364;16.022;2023-04-24T12:22:26;0.80;;;0.80;;
7813;SDS011;3952;48.364;16.022;2023-04-24T12:24:57;0.80;;;0.80;;
7813;SDS011;3952;48.364;16.022;2023-04-24T12:27:26;0.90;;;0.90;;
7813;SDS011;3952;48.364;16.022;2023-04-24T12:29:55;0.80;;;0.80;;
7813;SDS011;3952;48.364;16.022;2023-04-24T12:32:23;0.70;;;0.70;;
7813;SDS011;3952;48.364;16.022;2023-04-24T12:34:51;0.50;;;0.50;;
7813;SDS011;3952;48.364;16.022;2023-04-24T12:37:19;1.53;;;1.50;;
7813;SDS011;3952;48.364;16.022;2023-04-24T12:39:59;1.60;;;1.50;;
7813;SDS011;3952;48.364;16.022;2023-04-24T12:42:28;1.30;;;1.30;;
7813;SDS011;3952;48.364;16.022;2023-04-24T12:44:56;1.83;;;1.70;;
7813;SDS011;3952;48.364;16.022;2023-04-24T12:47:26;1.10;;;1.10;;
7813;SDS011;3952;48.364;16.022;2023-04-24T12:49:54;1.67;;;1.57;;
7813;SDS011;3952;48.364;16.022;2023-04-24T12:52:21;1.20;;;1.20;;
7813;SDS011;3952;48.364;16.022;2023-04-24T12:54:49;1.20;;;1.20;;
7813;SDS011;3952;48.364;16.022;2023-04-24T12:57:18;0.80;;;0.80;;
7813;SDS011;3952;48.364;16.022;2023-04-24T12:59:45;1.37;;;1.10;;
7813;SDS011;3952;48.364;16.022;2023-04-24T13:02:12;1.10;;;1.10;;
7813;SDS011;3952;48.364;16.022;2023-04-24T13:04:42;1.63;;;1.20;;
7813;SDS011;3952;48.364;16.022;2023-04-24T13:07:11;0.90;;;0.90;;
7813;SDS011;3952;48.364;16.022;2023-04-24T13:09:39;0.70;;;0.70;;
7813;SDS011;3952;48.364;16.022;2023-04-24T13:12:06;0.90;;;0.90;;
7813;SDS011;3952;48.364;16.022;2023-04-24T13:14:35;2.13;;;1.10;;
7813;SDS011;3952;48.364;16.022;2023-04-24T13:17:02;1.07;;;1.07;;
7813;SDS011;3952;48.364;16.022;2023-04-24T13:19:34;0.90;;;0.90;;
7813;SDS011;3952;48.364;16.022;2023-04-24T13:22:03;0.97;;;0.97;;
7813;SDS011;3952;48.364;16.022;2023-04-24T13:24:30;1.13;;;1.13;;
7813;SDS011;3952;48.364;16.022;2023-04-24T13:26:58;1.00;;;1.00;;
7813;SDS011;3952;48.364;16.022;2023-04-24T13:29:26;1.17;;;1.17;;
7813;SDS011;3952;48.364;16.022;2023-04-24T13:31:54;1.37;;;1.27;;
7813;SDS011;3952;48.364;16.022;2023-04-24T13:34:22;1.13;;;1.03;;
7813;SDS011;3952;48.364;16.022;2023-04-24T13:36:49;0.70;;;0.70;;
7813;SDS011;3952;48.364;16.022;2023-04-24T13:39:17;0.60;;;0.60;;
7813;SDS011;3952;48.364;16.022;2023-04-24T13:41:44;0.60;;;0.60;;
7813;SDS011;3952;48.364;16.022;2023-04-24T13:44:13;0.70;;;0.30;;
7813;SDS011;3952;48.364;16.022;2023-04-24T13:46:40;0.60;;;0.60;;
7813;SDS011;3952;48.364;16.022;2023-04-24T13:49:10;0.73;;;0.40;;
7813;SDS011;3952;48.364;16.022;2023-04-24T13:51:37;0.33;;;0.33;;
7813;SDS011;3952;48.364;16.022;2023-04-24T13:54:05;0.60;;;0.60;;
7813;SDS011;3952;48.364;16.022;2023-04-24T13:56:32;0.50;;;0.50;;
7813;SDS011;3952;48.364;16.022;2023-04-24T13:59:00;0.57;;;0.57;;
7813;SDS011;3952;48.364;16.022;2023-04-24T14:01:27;0.77;;;0.77;;
7813;SDS011;3952;48.364;16.022;2023-04-24T14:03:55;0.90;;;0.70;;
7813;SDS011;3952;48.364;16.022;2023-04-24T14:06:23;0.80;;;0.80;;
7813;SDS011;3952;48.364;16.022;2023-04-24T14:08:51;0.63;;;0.63;;
7813;SDS011;3952;48.364;16.022;2023-04-24T14:11:18;0.40;;;0.40;;
7813;SDS011;3952;48.364;16.022;2023-04-24T14:13:46;0.50;;;0.50;;
7813;SDS011;3952;48.364;16.022;2023-04-24T14:16:13;1.90;;;0.80;;
7813;SDS011;3952;48.364;16.022;2023-04-24T14:18:40;2.20;;;1.00;;
7813;SDS011;3952;48.364;16.022;2023-04-24T14:21:07;1.90;;;1.00;;
7813;SDS011;3952;48.364;16.022;2023-04-24T14:23:36;1.00;;;1.00;;
7813;SDS011;3952;48.364;16.022;2023-04-24T14:26:03;1.63;;;1.27;;
7813;SDS011;3952;48.364;16.022;2023-04-24T14:28:31;1.10;;;1.10;;
7813;SDS011;3952;48.364;16.022;2023-04-24T14:30:58;1.50;;;1.50;;
7813;SDS011;3952;48.364;16.022;2023-04-24T14:33:25;1.50;;;1.40;;
7813;SDS011;3952;48.364;16.022;2023-04-24T14:35:53;3.23;;;1.87;;
7813;SDS011;3952;48.364;16.022;2023-04-24T14:38:20;2.40;;;2.00;;
7813;SDS011;3952;48.364;16.022;2023-04-24T14:40:49;2.27;;;2.07;;
7813;SDS011;3952;48.364;16.022;2023-04-24T14:43:16;3.63;;;1.90;;
7813;SDS011;3952;48.364;16.022;2023-04-24T14:45:43;1.57;;;1.50;;
7813;SDS011;3952;48.364;16.022;2023-04-24T14:48:11;1.73;;;1.63;;
7813;SDS011;3952;48.364;16.022;2023-04-24T14:50:38;2.20;;;1.80;;
7813;SDS011;3952;48.364;16.022;2023-04-24T14:53:05;2.00;;;1.90;;
7813;SDS011;3952;48.364;16.022;2023-04-24T14:55:32;2.40;;;1.70;;
7813;SDS011;3952;48.364;16.022;2023-04-24T14:58:02;1.60;;;1.60;;
7813;SDS011;3952;48.364;16.022;2023-04-24T15:00:30;1.37;;;1.37;;
7813;SDS011;3952;48.364;16.022;2023-04-24T15:02:57;1.43;;;1.33;;
7813;SDS011;3952;48.364;16.022;2023-04-24T15:05:24;1.50;;;1.40;;
7813;SDS011;3952;48.364;16.022;2023-04-24T15:07:52;1.53;;;1.40;;